Time;durP1;ratioP1;P1;durP2;ratioP2;P2;SDS_P1;SDS_P2;PMS_P1;PMS_P2;Temp;Humidity;BMP_temperature;BMP_pressure;BME280_temperature;BME280_humidity;BME280_pressure;Samples;Min_cycle;Max_cycle;Signal;HPM_P1;HPM_P2
2021/12/04 00:02:06;;;;;;;324.75;42.28;;;;;;;-0.72;100.00;97777.72;5119414;28;20040;-82
2021/12/04 00:04:37;;;;;;;115.70;32.58;;;;;;;-0.64;100.00;97780.06;5108265;28;20035;-84
2021/12/04 00:07:05;;;;;;;219.68;33.95;;;;;;;-0.62;100.00;97791.38;5115714;28;20066;-86
2021/12/04 00:09:31;;;;;;;267.98;38.85;;;;;;;-0.63;100.00;97798.63;5122696;28;20033;-90
2021/12/04 00:12:01;;;;;;;100.97;30.75;;;;;;;-0.54;100.00;97799.16;5122910;28;20097;-83
2021/12/04 00:14:27;;;;;;;128.13;33.55;;;;;;;-0.46;100.00;97782.69;5125184;28;20089;-87
2021/12/04 00:16:55;;;;;;;179.40;31.73;;;;;;;-0.47;100.00;97788.31;5119404;28;20037;-84
2021/12/04 00:19:22;;;;;;;144.88;31.17;;;;;;;-0.59;100.00;97782.88;5116386;28;20032;-84
2021/12/04 00:21:48;;;;;;;132.68;31.70;;;;;;;-0.67;100.00;97793.94;5117082;28;20031;-82
2021/12/04 00:24:13;;;;;;;167.07;33.30;;;;;;;-0.75;100.00;97797.75;5114617;28;20039;-81
2021/12/04 00:26:39;;;;;;;251.77;36.80;;;;;;;-0.81;100.00;97808.59;5105204;28;20023;-85
2021/12/04 00:29:05;;;;;;;287.65;42.17;;;;;;;-0.69;100.00;97806.78;5102929;28;20105;-82
2021/12/04 00:31:32;;;;;;;196.32;39.03;;;;;;;-0.72;100.00;97802.69;5102923;28;20031;-85
2021/12/04 00:33:58;;;;;;;177.68;34.95;;;;;;;-0.71;100.00;97807.00;5113389;28;20024;-86
2021/12/04 00:36:33;;;;;;;228.40;39.38;;;;;;;-0.77;100.00;97802.56;5113850;28;20028;-81
2021/12/04 00:49:55;;;;;;;70.28;29.35;;;;;;;-1.02;100.00;97763.44;5100444;28;20504;-86
2021/12/04 00:52:21;;;;;;;77.30;31.25;;;;;;;-1.08;100.00;97754.44;5104373;28;20020;-84
2021/12/04 00:54:46;;;;;;;148.43;31.95;;;;;;;-1.17;100.00;97739.72;5106138;28;20035;-80
2021/12/04 00:57:13;;;;;;;328.08;39.30;;;;;;;-1.33;100.00;97745.69;5107688;28;20505;-83
2021/12/04 00:59:38;;;;;;;240.98;38.38;;;;;;;-1.32;100.00;97741.97;5104663;28;20020;-84
2021/12/04 01:02:05;;;;;;;190.57;37.15;;;;;;;-1.31;100.00;97746.28;5103575;28;20492;-84
2021/12/04 01:04:31;;;;;;;161.55;37.92;;;;;;;-1.32;100.00;97734.75;5099137;28;20032;-85
2021/12/04 01:06:56;;;;;;;134.38;31.63;;;;;;;-1.26;100.00;97733.84;5096030;28;20085;-86
2021/12/04 01:09:23;;;;;;;216.68;37.38;;;;;;;-1.31;100.00;97739.03;5096411;28;20028;-85
2021/12/04 01:11:49;;;;;;;205.77;35.90;;;;;;;-1.29;100.00;97733.47;5099286;28;20071;-83
2021/12/04 01:14:20;;;;;;;172.60;37.28;;;;;;;-1.17;100.00;97737.84;5096098;28;20024;-82
2021/12/04 01:16:46;;;;;;;61.72;27.95;;;;;;;-1.00;100.00;97737.22;5098437;28;20073;-86
2021/12/04 01:19:14;;;;;;;69.95;28.65;;;;;;;-0.89;100.00;97731.06;5099470;28;20024;-83
2021/12/04 01:21:40;;;;;;;62.92;27.17;;;;;;;-0.83;100.00;97738.22;5099255;28;20027;-84
2021/12/04 01:24:06;;;;;;;97.13;28.65;;;;;;;-0.81;100.00;97738.78;5097322;28;20138;-84
2021/12/04 01:26:31;;;;;;;66.22;26.67;;;;;;;-0.78;100.00;97743.69;5096697;28;20024;-81
2021/12/04 01:28:57;;;;;;;88.90;28.45;;;;;;;-0.70;100.00;97746.91;5096768;28;20020;-85
2021/12/04 01:31:23;;;;;;;55.88;25.10;;;;;;;-0.69;100.00;97747.72;5096634;28;20175;-84
2021/12/04 01:33:49;;;;;;;54.85;24.05;;;;;;;-0.59;100.00;97747.97;5096805;28;20028;-83
2021/12/04 01:36:15;;;;;;;54.38;24.70;;;;;;;-0.53;100.00;97741.69;5098929;28;20031;-85
2021/12/04 01:38:41;;;;;;;51.67;24.02;;;;;;;-0.61;100.00;97739.34;5104447;28;20396;-84
2021/12/04 01:41:07;;;;;;;55.72;25.70;;;;;;;-0.62;100.00;97743.88;5105150;28;20016;-85
2021/12/04 01:43:33;;;;;;;58.80;25.58;;;;;;;-0.64;100.00;97739.78;5103819;28;20111;-85
2021/12/04 01:45:58;;;;;;;49.75;21.23;;;;;;;-0.61;100.00;97736.66;5105004;28;20028;-87
2021/12/04 01:48:24;;;;;;;70.03;26.27;;;;;;;-0.79;100.00;97726.81;5105663;28;20028;-87
2021/12/04 01:50:52;;;;;;;45.17;22.88;;;;;;;-0.77;100.00;97713.13;5106908;28;20555;-85
2021/12/04 01:53:18;;;;;;;49.67;24.33;;;;;;;-0.67;100.00;97718.78;5107164;28;20023;-83
2021/12/04 01:55:43;;;;;;;65.43;26.35;;;;;;;-0.61;100.00;97720.53;5110857;28;20024;-83
2021/12/04 01:58:09;;;;;;;100.72;27.25;;;;;;;-0.60;100.00;97700.69;5115640;28;20135;-86
2021/12/04 02:00:40;;;;;;;116.72;29.08;;;;;;;-0.62;100.00;97700.09;5115219;28;20004;-83
2021/12/04 02:03:08;;;;;;;89.78;29.23;;;;;;;-0.74;100.00;97685.84;5115137;28;20043;-84
2021/12/04 02:05:37;;;;;;;110.32;30.33;;;;;;;-0.76;100.00;97671.81;5112494;28;20108;-83
2021/12/04 02:08:04;;;;;;;124.55;31.42;;;;;;;-0.85;100.00;97670.53;5113279;28;20046;-84
2021/12/04 02:10:30;;;;;;;63.88;27.02;;;;;;;-0.86;100.00;97671.56;5120237;28;20047;-80
2021/12/04 02:12:55;;;;;;;58.90;26.05;;;;;;;-0.81;100.00;97664.44;5118925;28;20028;-86
2021/12/04 02:15:21;;;;;;;63.25;26.40;;;;;;;-0.79;100.00;97654.31;5118011;28;20042;-82
2021/12/04 02:17:48;;;;;;;126.50;27.30;;;;;;;-0.75;100.00;97652.78;5117370;28;20020;-87
2021/12/04 02:20:20;;;;;;;158.23;29.60;;;;;;;-0.74;100.00;97642.88;5116378;28;20031;-81
2021/12/04 02:22:46;;;;;;;75.68;25.08;;;;;;;-0.68;100.00;97641.94;5116470;28;20013;-83
2021/12/04 02:25:12;;;;;;;145.82;30.17;;;;;;;-0.70;100.00;97639.50;5115807;28;20060;-85
2021/12/04 02:27:38;;;;;;;97.10;27.45;;;;;;;-0.65;100.00;97636.13;5113071;28;20024;-84
2021/12/04 02:30:07;;;;;;;56.65;24.48;;;;;;;-0.58;100.00;97631.47;5115820;28;20058;-84
2021/12/04 02:32:33;;;;;;;89.97;28.10;;;;;;;-0.47;100.00;97627.16;5114750;28;20020;-81
2021/12/04 02:34:59;;;;;;;153.75;28.67;;;;;;;-0.56;100.00;97624.81;5115260;28;20024;-82
2021/12/04 02:37:24;;;;;;;123.70;25.65;;;;;;;-0.73;100.00;97617.69;5116873;28;20028;-84
2021/12/04 02:39:57;;;;;;;109.15;27.00;;;;;;;-0.77;100.00;97622.69;5116603;28;20044;-87
2021/12/04 02:42:27;;;;;;;79.28;24.88;;;;;;;-0.66;100.00;97613.03;5117262;28;20024;-82
2021/12/04 02:44:53;;;;;;;63.17;25.67;;;;;;;-0.82;100.00;97613.69;5118282;28;20035;-86
2021/12/04 02:47:18;;;;;;;52.20;24.08;;;;;;;-0.83;100.00;97604.00;5116269;28;20008;-84
2021/12/04 02:49:44;;;;;;;54.85;24.70;;;;;;;-0.85;100.00;97580.09;5115832;28;20020;-85
2021/12/04 02:52:11;;;;;;;65.35;28.67;;;;;;;-0.79;100.00;97581.03;5116162;28;20075;-84
2021/12/04 02:54:37;;;;;;;48.17;23.38;;;;;;;-0.60;100.00;97590.59;5113088;28;20024;-81
2021/12/04 02:57:05;;;;;;;46.85;23.60;;;;;;;-0.49;100.00;97583.59;5106490;28;20077;-83
2021/12/04 02:59:32;;;;;;;46.58;22.55;;;;;;;-0.52;100.00;97576.00;5119437;28;20024;-81
2021/12/04 03:01:58;;;;;;;41.67;21.95;;;;;;;-0.51;100.00;97583.00;5120160;28;20047;-79
2021/12/04 03:04:24;;;;;;;41.53;21.20;;;;;;;-0.43;100.00;97602.25;5119707;28;20009;-82
2021/12/04 03:06:50;;;;;;;41.67;20.77;;;;;;;-0.43;100.00;97602.25;5119686;28;20020;-83
2021/12/04 03:09:16;;;;;;;40.78;21.73;;;;;;;-0.40;100.00;97595.59;5120363;28;20030;-81
2021/12/04 03:11:42;;;;;;;36.95;20.70;;;;;;;-0.50;100.00;97590.03;5120244;28;20044;-77
2021/12/04 03:14:08;;;;;;;41.20;21.08;;;;;;;-0.47;100.00;97603.78;5119769;28;20064;-78
2021/12/04 03:16:36;;;;;;;39.67;19.60;;;;;;;-0.53;100.00;97603.91;5120367;28;20020;-80
2021/12/04 03:19:03;;;;;;;34.78;19.38;;;;;;;-0.44;100.00;97603.34;5119036;28;20034;-79
2021/12/04 03:21:29;;;;;;;39.00;19.08;;;;;;;-0.37;100.00;97600.50;5118702;28;20012;-83
2021/12/04 03:24:00;;;;;;;36.20;18.83;;;;;;;-0.43;100.00;97594.22;5118173;28;20012;-81
2021/12/04 03:26:26;;;;;;;35.20;18.08;;;;;;;-0.43;100.00;97596.91;5119306;28;20042;-85
2021/12/04 03:28:54;;;;;;;34.55;16.95;;;;;;;-0.47;100.00;97595.72;5118290;28;20058;-81
2021/12/04 03:31:43;;;;;;;35.88;18.35;;;;;;;-0.49;100.00;97597.00;5117115;28;20020;-84
2021/12/04 03:42:21;;;;;;;35.88;17.67;;;;;;;-0.56;100.00;97576.47;5117976;28;20039;-85
2021/12/04 03:44:47;;;;;;;35.15;17.55;;;;;;;-0.52;100.00;97570.63;5116911;28;20032;-81
2021/12/04 03:47:13;;;;;;;36.75;18.73;;;;;;;-0.51;100.00;97573.09;5117437;28;20031;-81
2021/12/04 03:49:38;;;;;;;36.22;19.33;;;;;;;-0.49;100.00;97573.66;5116373;28;20049;-85
2021/12/04 03:52:06;;;;;;;38.88;20.25;;;;;;;-0.59;100.00;97562.69;5103479;28;20039;-82
2021/12/04 03:54:31;;;;;;;37.65;19.77;;;;;;;-0.53;100.00;97553.69;5101828;28;20028;-84
2021/12/04 03:57:03;;;;;;;38.17;19.30;;;;;;;-0.61;100.00;97551.38;5104749;28;20020;-79
2021/12/04 03:59:35;;;;;;;34.88;18.27;;;;;;;-0.59;100.00;97554.63;5109422;28;20036;-86
2021/12/04 04:02:00;;;;;;;37.50;17.92;;;;;;;-0.57;100.00;97544.47;5111782;28;20120;-80
2021/12/04 04:04:26;;;;;;;42.17;19.70;;;;;;;-0.58;100.00;97540.97;5115640;28;20000;-82
2021/12/04 04:06:51;;;;;;;36.88;18.05;;;;;;;-0.60;100.00;97543.09;5113096;28;20098;-82
2021/12/04 04:09:17;;;;;;;37.15;18.42;;;;;;;-0.60;100.00;97548.47;5099662;28;20173;-81
2021/12/04 04:11:42;;;;;;;35.92;18.48;;;;;;;-0.48;100.00;97551.13;5097582;28;20038;-84
2021/12/04 04:14:08;;;;;;;38.00;19.40;;;;;;;-0.57;100.00;97534.56;5096610;28;20089;-85
2021/12/04 04:16:37;;;;;;;35.40;18.98;;;;;;;-0.59;100.00;97535.81;5095671;28;20020;-84
2021/12/04 04:19:03;;;;;;;37.08;17.88;;;;;;;-0.63;100.00;97535.47;5095448;28;20028;-85
2021/12/04 04:21:29;;;;;;;35.97;17.27;;;;;;;-0.59;100.00;97535.81;5094867;28;20035;-84
2021/12/04 04:23:55;;;;;;;37.85;18.35;;;;;;;-0.61;100.00;97529.88;5095224;28;20024;-84
2021/12/04 04:26:20;;;;;;;31.30;16.65;;;;;;;-0.55;100.00;97528.94;5095972;28;20027;-83
2021/12/04 04:28:45;;;;;;;31.55;16.95;;;;;;;-0.66;100.00;97516.34;5095611;28;20028;-79
2021/12/04 04:31:11;;;;;;;37.60;18.98;;;;;;;-0.75;100.00;97507.81;5096528;28;20021;-88
2021/12/04 04:33:40;;;;;;;40.33;19.05;;;;;;;-0.69;100.00;97511.47;5097737;28;20430;-87
2021/12/04 04:36:35;;;;;;;31.40;17.45;;;;;;;-0.58;100.00;97508.75;5097022;28;20032;-83
2021/12/04 05:00:54;;;;;;;41.70;20.27;;;;;;;-0.43;100.00;97500.19;5111345;28;20028;-83
2021/12/04 05:14:20;;;;;;;39.90;19.13;;;;;;;-0.46;100.00;97489.94;5074824;28;20459;-84
2021/12/04 05:16:59;;;;;;;35.42;20.33;;;;;;;-0.43;100.00;97494.00;5092548;28;20122;-80
2021/12/04 05:19:27;;;;;;;42.63;19.92;;;;;;;-0.44;100.00;97490.53;5092357;28;20080;-81
2021/12/04 05:21:53;;;;;;;34.45;18.08;;;;;;;-0.47;100.00;97498.25;5092094;28;20032;-85
2021/12/04 05:24:19;;;;;;;40.42;18.85;;;;;;;-0.49;100.00;97494.94;5092577;28;20032;-83
2021/12/04 05:26:45;;;;;;;39.50;19.13;;;;;;;-0.56;100.00;97495.91;5093330;28;20028;-76
2021/12/04 05:29:10;;;;;;;42.10;21.25;;;;;;;-0.57;100.00;97472.81;5098221;28;20098;-77
2021/12/04 05:31:36;;;;;;;39.20;18.35;;;;;;;-0.71;100.00;97473.28;5095946;28;20111;-82
2021/12/04 05:34:04;;;;;;;38.83;20.52;;;;;;;-0.84;100.00;97463.59;5093014;28;20420;-80
2021/12/04 05:36:30;;;;;;;36.05;19.20;;;;;;;-0.80;100.00;97462.09;5092063;28;20039;-80
2021/12/04 05:38:55;;;;;;;40.70;19.80;;;;;;;-0.91;100.00;97446.84;5092236;28;20040;-81
2021/12/04 05:41:21;;;;;;;39.97;19.33;;;;;;;-0.93;100.00;97450.78;5096520;28;20109;-81
2021/12/04 05:43:48;;;;;;;39.90;18.80;;;;;;;-0.91;100.00;97448.69;5096036;28;20028;-79
2021/12/04 05:46:16;;;;;;;37.35;18.63;;;;;;;-0.87;100.00;97442.59;5095590;28;20023;-81
2021/12/04 05:53:56;;;;;;;33.20;17.45;;;;;;;-0.77;100.00;97444.69;5096902;28;20028;-82
2021/12/04 05:56:21;;;;;;;33.25;18.02;;;;;;;-0.75;100.00;97429.97;5103410;28;20073;-82
2021/12/04 05:58:48;;;;;;;33.63;17.23;;;;;;;-0.81;100.00;97427.41;5100762;28;20048;-84
2021/12/04 06:01:16;;;;;;;32.95;17.42;;;;;;;-0.77;100.00;97444.69;5102204;28;20111;-82
2021/12/04 06:03:42;;;;;;;35.90;17.42;;;;;;;-0.74;100.00;97436.16;5104728;28;20027;-83
2021/12/04 06:06:07;;;;;;;32.08;17.45;;;;;;;-0.68;100.00;97443.28;5096594;28;20032;-83
2021/12/04 06:08:33;;;;;;;34.22;17.88;;;;;;;-0.67;100.00;97445.72;5096302;28;20081;-80
2021/12/04 06:10:58;;;;;;;33.85;17.63;;;;;;;-0.64;100.00;97442.56;5096270;28;20028;-82
2021/12/04 06:13:25;;;;;;;32.97;17.52;;;;;;;-0.67;100.00;97442.22;5095098;28;20454;-85
2021/12/04 06:15:51;;;;;;;32.53;17.77;;;;;;;-0.64;100.00;97434.53;5095852;28;20024;-81
2021/12/04 06:18:17;;;;;;;31.50;16.63;;;;;;;-0.55;100.00;97435.78;5095565;28;20046;-80
2021/12/04 06:23:27;;;;;;;35.42;18.58;;;;;;;-0.78;100.00;97429.63;5095419;28;20030;-84
2021/12/04 06:25:53;;;;;;;35.45;18.00;;;;;;;-0.85;100.00;97429.78;5094718;28;20036;-84
2021/12/04 06:28:18;;;;;;;34.90;17.67;;;;;;;-0.78;100.00;97410.84;5096473;28;20028;-84
2021/12/04 06:30:44;;;;;;;37.58;18.33;;;;;;;-0.74;100.00;97412.81;5096974;28;20024;-82
2021/12/04 06:33:13;;;;;;;36.90;18.85;;;;;;;-0.74;100.00;97401.25;5095199;28;20050;-81
2021/12/04 06:35:41;;;;;;;29.50;15.65;;;;;;;-0.96;100.00;97392.22;5098255;28;20026;-83
2021/12/04 06:38:09;;;;;;;30.92;16.90;;;;;;;-0.83;100.00;97375.84;5095034;28;20020;-82
2021/12/04 06:40:35;;;;;;;32.88;17.88;;;;;;;-0.89;100.00;97371.44;5095239;28;20030;-84
2021/12/04 06:43:01;;;;;;;37.25;18.42;;;;;;;-0.83;100.00;97379.34;5094247;28;20555;-82
2021/12/04 06:45:29;;;;;;;38.40;18.30;;;;;;;-0.71;100.00;97406.97;5094693;28;20523;-78
2021/12/04 06:48:02;;;;;;;31.88;16.95;;;;;;;-0.60;100.00;97410.69;5095462;28;20111;-82
2021/12/04 06:51:15;;;;;;;32.22;17.20;;;;;;;-0.47;100.00;97413.09;5097911;28;20540;-81
2021/12/04 06:55:50;;;;;;;29.75;15.80;;;;;;;-0.46;100.00;97414.72;5095470;28;20028;-80
2021/12/04 06:58:16;;;;;;;35.63;17.77;;;;;;;-0.59;100.00;97404.25;5094478;28;20098;-80
2021/12/04 07:00:42;;;;;;;35.00;18.05;;;;;;;-0.57;100.00;97388.75;5095670;28;20024;-82
2021/12/04 07:03:08;;;;;;;37.85;16.42;;;;;;;-0.63;100.00;97382.44;5097500;28;20027;-82
2021/12/04 07:05:33;;;;;;;34.95;18.20;;;;;;;-0.56;100.00;97371.56;5096546;28;20408;-77
2021/12/04 07:07:59;;;;;;;34.22;16.77;;;;;;;-0.57;100.00;97381.50;5096639;28;20483;-80
2021/12/04 07:10:25;;;;;;;33.10;16.10;;;;;;;-0.43;100.00;97363.22;5094316;28;20091;-79
2021/12/04 07:12:50;;;;;;;30.92;16.33;;;;;;;-0.33;100.00;97366.09;5094363;28;20473;-77
2021/12/04 07:15:16;;;;;;;33.75;16.98;;;;;;;-0.26;100.00;97374.00;5093577;28;20031;-76
2021/12/04 07:17:42;;;;;;;27.95;15.82;;;;;;;-0.22;100.00;97380.53;5093526;28;20498;-77
2021/12/04 07:20:09;;;;;;;28.48;15.65;;;;;;;-0.20;100.00;97375.75;5093842;28;20097;-78
2021/12/04 07:22:35;;;;;;;33.25;16.85;;;;;;;-0.05;100.00;97384.88;5085032;28;20034;-76
2021/12/04 07:25:00;;;;;;;28.88;15.90;;;;;;;-0.01;100.00;97391.41;5096105;28;20043;-76
2021/12/04 07:27:28;;;;;;;32.22;17.65;;;;;;;-0.01;100.00;97387.91;5092389;28;20029;-79
2021/12/04 07:29:54;;;;;;;29.02;15.82;;;;;;;0.09;100.00;97384.59;5078757;28;20106;-77
2021/12/04 07:32:20;;;;;;;35.42;18.75;;;;;;;-0.06;100.00;97377.03;5076506;28;20161;-77
2021/12/04 07:34:45;;;;;;;37.85;20.23;;;;;;;-0.10;100.00;97379.44;5072922;28;20474;-76
2021/12/04 07:37:11;;;;;;;34.78;19.13;;;;;;;-0.17;100.00;97386.81;5074152;28;20032;-75
2021/12/04 07:39:36;;;;;;;39.05;18.92;;;;;;;-0.15;100.00;97378.50;5080868;28;20020;-82
2021/12/04 07:42:02;;;;;;;39.13;20.70;;;;;;;-0.24;100.00;97375.41;5099714;28;20119;-78
2021/12/04 07:44:27;;;;;;;41.17;20.98;;;;;;;-0.21;100.00;97366.84;5097018;28;20477;-78
2021/12/04 07:46:53;;;;;;;43.15;21.73;;;;;;;-0.24;100.00;97378.09;5093672;28;20039;-80
2021/12/04 07:49:18;;;;;;;44.70;21.65;;;;;;;-0.02;100.00;97368.28;5096693;28;20027;-78
2021/12/04 07:51:44;;;;;;;46.90;23.08;;;;;;;0.04;100.00;97371.03;5094856;28;20058;-75
2021/12/04 07:54:10;;;;;;;49.85;23.83;;;;;;;0.06;100.00;97363.56;5092548;28;20036;-76
2021/12/04 07:56:35;;;;;;;47.10;21.85;;;;;;;0.17;100.00;97368.84;5092328;28;20465;-79
2021/12/04 07:59:01;;;;;;;45.50;23.00;;;;;;;0.31;100.00;97367.50;5091734;28;20548;-78
2021/12/04 08:01:26;;;;;;;40.45;20.50;;;;;;;0.46;100.00;97358.84;5092001;28;20141;-76
2021/12/04 08:03:52;;;;;;;35.75;20.15;;;;;;;0.61;100.00;97353.69;5091785;28;20020;-77
2021/12/04 08:06:17;;;;;;;38.20;19.23;;;;;;;0.27;100.00;97349.38;5091949;28;20031;-83
2021/12/04 08:08:43;;;;;;;40.40;19.73;;;;;;;0.33;100.00;97343.03;5093399;28;20099;-82
2021/12/04 08:11:08;;;;;;;43.05;21.05;;;;;;;0.43;100.00;97343.19;5093298;28;20024;-85
2021/12/04 08:13:34;;;;;;;45.90;22.00;;;;;;;0.38;100.00;97335.03;5105057;28;20063;-80
2021/12/04 08:15:59;;;;;;;38.38;19.42;;;;;;;0.45;100.00;97335.69;5093836;28;20071;-84
2021/12/04 08:18:25;;;;;;;44.50;22.52;;;;;;;0.26;100.00;97342.38;5086076;28;20029;-83
2021/12/04 08:20:51;;;;;;;44.80;20.60;;;;;;;0.49;100.00;97342.22;5083018;28;20021;-87
2021/12/04 08:23:18;;;;;;;46.33;21.77;;;;;;;0.52;100.00;97347.09;5077456;28;20115;-82
2021/12/04 08:25:46;;;;;;;49.10;23.83;;;;;;;0.49;100.00;97337.66;5077350;28;20032;-80
2021/12/04 08:28:11;;;;;;;44.30;22.60;;;;;;;0.72;100.00;97331.22;5081616;28;20021;-82
2021/12/04 08:30:40;;;;;;;46.63;23.20;;;;;;;0.84;100.00;97345.41;5079385;28;20032;-83
2021/12/04 08:33:07;;;;;;;44.20;22.02;;;;;;;0.78;100.00;97338.34;5083316;28;20032;-83
2021/12/04 08:35:38;;;;;;;50.58;23.08;;;;;;;0.87;100.00;97338.72;5092513;28;20023;-85
2021/12/04 08:38:06;;;;;;;42.90;21.15;;;;;;;0.88;100.00;97327.69;5093956;28;20028;-85
2021/12/04 08:40:32;;;;;;;45.85;22.83;;;;;;;0.86;100.00;97335.19;5094584;28;20032;-80
2021/12/04 08:42:59;;;;;;;50.25;24.92;;;;;;;0.88;100.00;97335.75;5091706;28;20051;-87
2021/12/04 08:45:25;;;;;;;47.92;23.75;;;;;;;1.12;100.00;97335.53;5091746;28;20051;-83
2021/12/04 08:47:51;;;;;;;52.90;25.15;;;;;;;1.15;100.00;97333.16;5091273;28;20027;-81
2021/12/04 08:50:21;;;;;;;50.00;26.13;;;;;;;1.17;100.00;97339.09;5091946;28;20032;-78
2021/12/04 08:52:47;;;;;;;55.25;27.95;;;;;;;1.24;100.00;97334.34;5090149;28;20024;-77
2021/12/04 08:55:13;;;;;;;56.10;27.13;;;;;;;1.29;100.00;97329.00;5089704;28;20550;-75
2021/12/04 08:57:39;;;;;;;53.13;25.75;;;;;;;1.29;100.00;97317.41;5088163;28;20040;-75
2021/12/04 09:00:12;;;;;;;51.20;26.00;;;;;;;1.17;100.00;97328.31;5088937;28;20028;-76
2021/12/04 09:02:38;;;;;;;48.97;23.58;;;;;;;0.99;100.00;97334.84;5089905;28;20024;-75
2021/12/04 09:05:05;;;;;;;45.67;23.60;;;;;;;1.07;100.00;97323.63;5088480;28;20731;-76
2021/12/04 09:07:34;;;;;;;47.63;24.13;;;;;;;0.93;100.00;97322.38;5090464;28;20023;-75
2021/12/04 09:09:59;;;;;;;48.85;24.02;;;;;;;0.96;100.00;97311.13;5089293;28;20077;-75
2021/12/04 09:12:27;;;;;;;48.35;24.02;;;;;;;1.02;100.00;97307.41;5090612;28;20028;-75
2021/12/04 09:14:54;;;;;;;42.65;21.85;;;;;;;1.31;100.00;97313.44;5090943;28;20040;-76
2021/12/04 09:17:20;;;;;;;43.40;23.42;;;;;;;1.39;100.00;97310.28;5090095;28;20503;-76
2021/12/04 09:19:47;;;;;;;46.95;23.73;;;;;;;1.44;100.00;97306.84;5091689;28;20028;-74
2021/12/04 09:22:32;;;;;;;44.30;23.42;;;;;;;1.37;100.00;97298.94;5094523;28;20485;-75
2021/12/04 09:25:11;;;;;;;49.53;23.80;;;;;;;1.42;100.00;97293.59;5090610;28;20071;-76
2021/12/04 09:27:59;;;;;;;46.65;23.10;;;;;;;1.39;100.00;97288.72;5090284;28;20071;-75
2021/12/04 09:35:32;;;;;;;46.08;23.52;;;;;;;1.28;100.00;97270.00;5092482;28;20085;-75
2021/12/04 10:00:16;;;;;;;40.33;21.50;;;;;;;2.35;100.00;97238.28;5124534;28;20035;-84
2021/12/04 10:05:41;;;;;;;39.20;20.63;;;;;;;2.46;100.00;97228.38;5110834;28;20062;-87
2021/12/04 10:32:34;;;;;;;37.97;20.23;;;;;;;3.44;100.00;97196.84;5103023;28;20469;-75
2021/12/04 10:35:06;;;;;;;39.22;20.98;;;;;;;4.44;100.00;97184.34;5100754;28;20023;-78
2021/12/04 10:37:34;;;;;;;33.97;19.05;;;;;;;6.79;88.57;97177.47;5099637;28;20026;-76
2021/12/04 10:40:04;;;;;;;34.03;18.73;;;;;;;8.67;76.66;97176.19;5098807;28;20114;-74
2021/12/04 10:42:43;;;;;;;29.95;18.10;;;;;;;9.71;70.30;97178.06;5099956;28;20027;-85
2021/12/04 10:45:09;;;;;;;33.17;18.42;;;;;;;10.60;66.04;97170.63;5098590;28;20122;-81
2021/12/04 10:47:35;;;;;;;26.95;16.80;;;;;;;10.97;66.10;97177.53;5098946;28;20111;-84
2021/12/04 10:50:34;;;;;;;28.52;19.13;;;;;;;10.69;63.73;97168.72;5101571;28;20020;-79
2021/12/04 10:53:02;;;;;;;31.83;18.35;;;;;;;11.12;61.47;97163.44;5098398;28;20077;-89
2021/12/04 10:56:07;;;;;;;29.67;18.20;;;;;;;10.09;63.31;97157.44;5102700;28;20169;-86
2021/12/04 11:01:53;;;;;;;27.67;17.95;;;;;;;9.83;65.68;97140.09;5099990;28;20096;-79
2021/12/04 11:42:24;;;;;;;23.50;13.90;;;;;;;5.87;80.73;97038.38;5105468;28;20408;-86
2021/12/04 11:44:58;;;;;;;26.40;14.48;;;;;;;5.61;84.91;97036.19;5102878;28;20036;-83
2021/12/04 11:47:23;;;;;;;25.38;14.73;;;;;;;5.65;87.72;97026.38;5100452;28;20031;-79
2021/12/04 11:49:49;;;;;;;23.70;13.70;;;;;;;5.65;83.90;97034.50;5098350;28;20028;-81
2021/12/04 11:52:18;;;;;;;21.40;12.20;;;;;;;5.50;85.04;97035.47;5104298;28;20087;-89
2021/12/04 11:54:50;;;;;;;21.77;12.93;;;;;;;5.55;85.45;97026.47;5099301;28;20077;-77
2021/12/04 11:57:25;;;;;;;24.42;11.98;;;;;;;5.55;85.61;97026.47;5099202;28;20448;-83
2021/12/04 11:59:51;;;;;;;26.00;15.38;;;;;;;5.26;85.35;97024.56;5101433;28;20118;-89
2021/12/04 12:02:21;;;;;;;25.45;12.85;;;;;;;4.54;88.96;97022.63;5101109;28;20059;-86
2021/12/04 12:04:50;;;;;;;28.88;13.73;;;;;;;4.58;89.55;97006.66;5114172;28;20032;-84
2021/12/04 12:07:20;;;;;;;19.98;12.23;;;;;;;4.67;90.19;97002.25;5115832;28;20031;-80
2021/12/04 12:09:49;;;;;;;32.10;14.68;;;;;;;4.52;90.72;96996.94;5103652;28;20492;-75
2021/12/04 12:12:17;;;;;;;39.42;21.67;;;;;;;4.72;95.29;96996.81;5096952;28;20028;-76
2021/12/04 12:14:54;;;;;;;37.47;20.42;;;;;;;4.66;96.55;96998.75;5097253;28;20024;-74
2021/12/04 12:17:35;;;;;;;37.15;20.85;;;;;;;4.53;97.24;96996.69;5097694;28;20059;-74
2021/12/04 12:20:08;;;;;;;40.13;20.38;;;;;;;4.51;98.14;96987.22;5097372;28;20042;-76
2021/12/04 12:22:44;;;;;;;37.88;20.92;;;;;;;4.45;97.70;96986.41;5097569;28;20460;-76
2021/12/04 12:33:44;;;;;;;46.38;25.02;;;;;;;3.87;100.00;96985.38;5096698;28;20081;-76
2021/12/04 12:36:19;;;;;;;43.35;23.25;;;;;;;3.80;100.00;96976.72;5095233;28;20127;-78
2021/12/04 12:38:52;;;;;;;43.83;23.00;;;;;;;4.19;100.00;96971.44;5096859;28;20391;-78
2021/12/04 12:41:29;;;;;;;45.28;23.40;;;;;;;4.35;100.00;96953.22;5097369;28;20024;-77
2021/12/04 12:43:58;;;;;;;53.78;27.92;;;;;;;4.31;100.00;96948.34;5097683;28;20107;-76
2021/12/04 12:46:55;;;;;;;47.35;22.13;;;;;;;4.51;100.00;96952.03;5098693;28;20035;-84
2021/12/04 12:49:22;;;;;;;52.10;25.95;;;;;;;4.42;100.00;96930.13;5087758;28;20055;-77
2021/12/04 12:51:53;;;;;;;45.85;23.77;;;;;;;4.35;100.00;96936.97;5115641;28;20076;-90
2021/12/04 12:54:27;;;;;;;46.22;23.30;;;;;;;4.37;100.00;96934.78;5125216;28;20024;-84
2021/12/04 12:57:19;;;;;;;45.67;24.95;;;;;;;4.28;100.00;96934.56;5125783;28;20049;-82
2021/12/04 13:13:35;;;;;;;51.20;26.27;;;;;;;3.74;100.00;96911.06;5095441;28;20511;-79
2021/12/04 13:16:07;;;;;;;48.17;26.02;;;;;;;3.64;100.00;96905.69;5096650;28;20036;-74
2021/12/04 13:18:36;;;;;;;44.47;24.48;;;;;;;3.61;100.00;96908.13;5097554;28;20097;-75
2021/12/04 13:21:07;;;;;;;48.15;25.23;;;;;;;3.39;100.00;96902.25;5099644;28;20043;-77
2021/12/04 13:23:34;;;;;;;51.33;26.70;;;;;;;3.18;100.00;96896.94;5099657;28;20087;-82
2021/12/04 13:26:03;;;;;;;46.70;26.05;;;;;;;2.98;100.00;96886.16;5102390;28;20472;-84
2021/12/04 13:28:33;;;;;;;48.30;25.90;;;;;;;2.96;100.00;96892.94;5102320;28;20019;-85
2021/12/04 13:31:00;;;;;;;47.88;25.50;;;;;;;2.90;100.00;96889.44;5104184;28;20051;-78
2021/12/04 13:33:28;;;;;;;49.65;26.17;;;;;;;2.84;100.00;96893.22;5097822;28;20030;-87
2021/12/04 13:35:53;;;;;;;58.35;27.00;;;;;;;2.86;100.00;96893.75;5095917;28;20039;-80
2021/12/04 13:38:20;;;;;;;51.42;27.00;;;;;;;2.88;100.00;96893.50;5097699;28;20036;-83
2021/12/04 13:40:49;;;;;;;50.50;26.58;;;;;;;3.15;100.00;96896.66;5097053;28;20020;-84
2021/12/04 13:43:16;;;;;;;55.03;28.10;;;;;;;3.23;100.00;96899.59;5101575;28;20035;-85
2021/12/04 13:45:43;;;;;;;53.63;27.73;;;;;;;3.37;100.00;96896.34;5094197;28;20031;-86
2021/12/04 13:48:08;;;;;;;46.13;25.52;;;;;;;3.37;100.00;96882.81;5103331;28;20060;-85
2021/12/04 13:53:13;;;;;;;45.08;23.88;;;;;;;3.33;100.00;96879.03;5103167;28;20047;-85
2021/12/04 13:55:40;;;;;;;48.28;24.17;;;;;;;3.28;100.00;96871.78;5103823;28;20040;-86
2021/12/04 13:58:06;;;;;;;47.03;24.83;;;;;;;3.35;100.00;96880.41;5102403;28;20028;-88
2021/12/04 14:00:33;;;;;;;52.20;26.45;;;;;;;3.26;100.00;96881.25;5102911;28;20027;-89
2021/12/04 14:02:58;;;;;;;45.20;24.52;;;;;;;3.15;100.00;96875.06;5107614;28;20027;-86
2021/12/04 14:05:25;;;;;;;43.15;24.17;;;;;;;2.91;100.00;96874.84;5104427;28;20027;-85
2021/12/04 14:08:01;;;;;;;53.38;27.52;;;;;;;2.71;100.00;96882.97;5102819;28;20428;-85
2021/12/04 14:10:33;;;;;;;49.78;26.70;;;;;;;2.66;100.00;96880.28;5104461;28;20020;-88
2021/12/04 14:13:02;;;;;;;61.20;30.00;;;;;;;2.46;100.00;96881.09;5108229;28;20057;-78
2021/12/04 14:15:28;;;;;;;59.70;30.70;;;;;;;2.31;100.00;96883.00;5115675;28;20008;-83
2021/12/04 14:17:59;;;;;;;59.78;32.00;;;;;;;2.21;100.00;96874.88;5122304;28;20054;-85
2021/12/04 14:20:26;;;;;;;59.08;32.50;;;;;;;2.32;100.00;96882.69;5121154;28;20035;-88